Terminal Aerodrome Forecast
Issued by NWS Sterling, VA

Home | Current Version | Previous Version | Text Only | Print | Product List | Glossary On
Versions: 1 2 3 4 5 6 7 8 9 10 11 12 13 14
000
FTUS41 KLWX 291720
TAFCHO
TAF
KCHO 291720Z 2918/3018 14005KT P6SM VCTS SCT050CB
     FM291900 15006KT P6SM VCTS BKN030CB
     FM300100 VRB03KT P6SM BKN250
     FM300800 00000KT 3SM BR SCT010 BKN030
     FM301300 19005KT P6SM SCT250=

USA.gov is the U.S. government's official web portal to all federal, state and local government web resources and services.